Anzali, Iran

11:56 PM IRST on September 22, 2014 (GMT +0330)
Rasht | Change Station
CLOSE
Current Station
Airport
Location: Rasht,
Elevation: -30 ft
Nearby Weather Stations

Elev -30 ft 37.33 °N, 49.61 °E | Updated 1 hour ago

Overcast
Overcast
70 °F
Feels Like 70 °F
N
2
Wind Variable Wind from Variable

Today
High -- | Low -- °F
--% Chance of Precip.
Yesterday
High -- | Low -- °F
Precip. -- in
5:59 AM 6:09 PM
Waning Crescent, 2% visible
Pressure 29.89 in
Visibility 2.5 miles
Clouds Few 1000 ft
Mostly Cloudy 2000 ft
Overcast 8000 ft
Dew Point 68 °F
Humidity 94%
Rainfall 0.00 in
Snow Depth Not available.
UV 0 out of 12
Pollen Not available.
Air Quality Not available.
Flu Activity Not available.
METAR OIGG 221900Z VRB02KT 4000 BR FEW010CB BKN020 OVC080 21/20 Q1012

More Conditions Fewer Conditions

Pressure 29.89 in
Visibility 2.5 miles
Clouds Few 1000 ft
Mostly Cloudy 2000 ft
Overcast 8000 ft
Dew Point 68 °F
Humidity 94%
Rainfall 0.00 in
Snow Depth Not available.
UV 0 out of 12
Pollen Not available.
Air Quality Not available.
Flu Activity Not available.
METAR OIGG 221900Z VRB02KT 4000 BR FEW010CB BKN020 OVC080 21/20 Q1012

More Conditions Fewer Conditions

10-Day Weather Forecast

Almanac

Astronomy

Sep. 22, 2014 Rise Set
Actual Time 5:59 AM IRST 6:09 PM IRST
Civil Twilight 5:33 AM IRST 6:35 PM IRST
Nautical Twilight 5:03 AM IRST 7:06 PM IRST
Astronomical Twilight 4:32 AM IRST 7:37 PM IRST
Moon 4:08 AM IRST 5:04 PM IRST
Length of Visible Light 13h 02m
Length of Day
12h 10m
Tomorrow will be 2m 23s shorter.
Waning Crescent, 2% of the Moon is Illuminated
Today
Waning Crescent
Sep 24
New
Oct 1
First Quarter
Oct 8
Full
Oct 15
Last Quarter

Today's Extremes

Country Highs Country Lows

Community

WunderPhotos

Upload Photos

1,755,523 photos uploaded!

WunderBlogs® & News

Nearby

Snow Depth

Not available.

Earthquake Activity

City Distance Mag. Time & Date
No recent earthquake activity has been reported nearby.
Minimum magnitude displayed is 2.5.

Coastal Water Temperatures

Place Temperature
No Stations Reporting

Nearby Weather Stations